Latest Weather Observations for Merimbula

IDN60801

Issued at 3:05 am EST Saturday 26 July 2014 (issued every 30 minutes, with the page automatically refreshed every 10 minutes)

About weather observations | Map of weather stations | Latest weather observations for NSW | Other Formats
Station Details ID: 069147 Name: MERIMBULA AIRPORT AWS Lat: -36.91 Lon: 149.90 Height: 1.5 m
Data from the previous 72 hours. | See also: Recent months at Merimbula
Date/Time
EST
Temp
°C
App
Temp
°C
Dew
Point
Rel
Hum
%
Delta-T
°C
Wind Press
QNH
hPa
Press
MSL
hPa
Rain
since 9 am
mm
Dir
 
Spd
km/h
Gust
km/h
Spd
kts
Gust
kts
26/03:00am 6.0 3.5 4.0 87 0.8 WNW 6 13 3 7 1020.9 1020.9 0.0
26/02:30am 7.0 3.7 4.7 85 1.0 NW 11 17 6 9 1020.9 - 0.0
26/02:00am 7.3 4.1 5.1 86 1.0 NW 11 15 6 8 1020.9 - 0.0
26/01:30am 7.0 4.1 4.8 86 1.0 NW 9 17 5 9 1020.9 - 0.0
26/01:00am 7.3 3.8 5.6 89 0.8 NNW 13 17 7 9 1020.9 - 0.0
26/12:30am 7.3 4.9 5.3 87 0.9 NW 7 11 4 6 1020.9 - 0.0
26/12:00am 8.2 5.6 6.3 88 0.9 NW 9 13 5 7 1020.9 1020.9 0.0
 
Date/Time
EST
Temp
°C
App
Temp
°C
Dew
Point
Rel
Hum
%
Delta-T
°C
Wind Press
QNH
hPa
Press
MSL
hPa
Rain
since 9 am
mm
Dir
 
Spd
km/h
Gust
km/h
Spd
kts
Gust
kts
25/11:30pm 8.5 5.1 6.1 85 1.1 NNW 13 17 7 9 1021.0 - 0.0
25/11:00pm 8.9 5.7 6.7 86 1.0 NW 13 15 7 8 1021.0 - 0.0
25/10:30pm 8.9 8.3 7.2 89 0.8 CALM 0 0 0 0 1020.8 - 0.0
25/10:00pm 8.7 8.1 7.3 91 0.7 CALM 0 0 0 0 1020.7 - 0.0
25/09:30pm 8.9 8.2 6.9 87 0.9 CALM 0 0 0 0 1020.5 - 0.0
25/09:00pm 10.5 10.2 8.6 88 0.9 CALM 0 0 0 0 1020.3 1020.3 0.0
25/08:30pm 10.4 10.2 9.0 91 0.7 CALM 0 0 0 0 1020.0 - 0.0
25/08:00pm 10.3 10.1 8.9 91 0.7 CALM 0 0 0 0 1019.8 - 0.0
25/07:30pm 10.8 10.6 9.2 90 0.8 CALM 0 0 0 0 1019.6 - 0.0
25/07:00pm 11.3 9.9 9.6 89 0.9 SSW 7 9 4 5 1019.3 - 0.0
25/06:30pm 12.0 11.3 10.2 89 0.9 W 4 9 2 5 1019.1 - 0.0
25/06:00pm 12.7 12.8 10.2 85 1.3 WNW 0 0 0 0 1018.7 1018.7 0.0
25/05:30pm 13.7 13.8 10.1 79 1.9 CALM 0 0 0 0 1018.4 - 0.0
25/05:00pm 15.6 14.7 11.4 76 2.3 SSE 7 11 4 6 1017.9 - 0.0
25/04:30pm 17.1 16.3 11.8 71 2.9 ESE 7 11 4 6 1017.7 - 0.0
25/04:00pm 17.9 16.0 11.9 68 3.3 ESE 13 17 7 9 1017.4 - 0.0
25/03:30pm 18.9 17.2 12.4 66 3.6 ESE 13 19 7 10 1017.2 - 0.0
25/03:00pm 19.1 17.1 11.4 61 4.2 ENE 13 24 7 13 1016.7 1016.7 0.0
25/02:30pm 19.9 17.5 10.0 53 5.3 ENE 13 19 7 10 1016.6 - 0.0
25/02:00pm 19.6 17.3 10.3 55 5.0 NE 13 20 7 11 1016.6 - 0.0
25/01:30pm 21.1 19.0 6.6 39 7.3 WNW 7 11 4 6 1016.8 - 0.0
25/01:00pm 21.2 18.6 7.8 42 6.9 NW 11 17 6 9 1017.1 - 0.0
25/12:30pm 18.9 17.5 9.7 55 4.9 NW 7 11 4 6 1017.3 - 0.0
25/12:00pm 18.0 18.0 9.9 59 4.3 CALM 0 0 0 0 1017.7 1017.7 0.0
25/11:30am 16.4 14.9 9.1 62 3.8 E 7 11 4 6 1018.2 - 0.0
25/11:00am 15.7 14.2 9.1 65 3.4 E 7 11 4 6 1018.7 - 0.0
25/10:30am 15.1 14.9 9.2 68 3.0 CALM 0 0 0 0 1018.8 - 0.0
25/10:00am 13.9 13.7 9.1 73 2.4 CALM 0 0 0 0 1019.0 - 0.0
25/09:30am 10.7 10.2 7.8 82 1.4 CALM 0 0 0 0 1019.0 - 0.0
25/09:00am 9.1 8.6 7.9 92 0.6 CALM 0 0 0 0 1019.0 1019.0 0.8
25/08:30am 7.3 6.5 6.7 96 0.3 CALM 0 0 0 0 1018.9 - 0.8
25/08:00am 6.0 3.7 5.6 97 0.2 SSW 7 9 4 5 1018.7 - 0.8
25/07:30am 5.0 2.1 4.4 96 0.3 SW 9 11 5 6 1018.6 - 0.8
25/07:16am 4.6 2.0 4.0 96 0.3 SSW 7 9 4 5 1018.4 - 0.8
25/07:06am 4.3 2.1 3.6 95 0.3 SW 4 9 2 5 1018.3 - 0.8
25/07:03am 3.9 2.1 3.2 95 0.3 WSW 2 9 1 5 1018.4 - 0.8
25/07:00am 4.0 2.6 3.3 95 0.3 CALM 0 0 0 0 1018.3 - 0.8
25/06:47am 4.4 2.6 3.7 95 0.3 W 2 6 1 3 1018.2 - 0.8
25/06:30am 5.1 2.2 4.5 96 0.3 SSW 9 11 5 6 1018.1 - 0.8
25/06:02am 5.3 4.1 4.7 96 0.3 CALM 0 0 0 0 1018.0 - 0.8
25/06:00am 5.4 4.2 4.8 96 0.3 SW 0 0 0 0 1017.9 1017.9 0.8
25/05:30am 4.8 3.5 4.2 96 0.3 CALM 0 0 0 0 1017.6 - 0.8
25/05:27am 4.8 3.5 4.1 95 0.3 CALM 0 0 0 0 1017.6 - 0.8
25/05:05am 4.9 3.6 4.3 96 0.3 CALM 0 0 0 0 1017.6 - 0.8
25/05:00am 5.3 4.1 4.7 96 0.3 CALM 0 0 0 0 1017.6 - 0.8
25/04:47am 5.4 4.2 4.8 96 0.3 CALM 0 0 0 0 1017.6 - 0.8
25/04:44am 5.6 4.5 5.0 96 0.3 CALM 0 0 0 0 1017.6 - 0.8
25/04:30am 5.4 4.2 4.7 95 0.3 CALM 0 0 0 0 1017.5 - 0.8
25/04:25am 5.2 3.6 4.5 95 0.3 SW 2 7 1 4 1017.5 - 0.8
25/04:06am 5.8 3.4 5.2 96 0.3 SSW 7 9 4 5 1017.5 - 0.8
25/04:00am 5.6 3.1 4.9 95 0.3 SW 7 9 4 5 1017.6 - 0.8
25/03:46am 5.9 3.7 5.2 95 0.3 WSW 6 11 3 6 1017.8 - 0.8
25/03:30am 6.2 3.5 5.6 96 0.3 NW 9 13 5 7 1017.8 - 0.8
25/03:22am 6.3 4.2 5.6 95 0.3 WNW 6 9 3 5 1017.8 - 0.8
25/03:00am 5.6 3.1 4.9 95 0.3 SW 7 7 4 4 1017.6 1017.6 0.8
25/02:39am 6.0 3.6 5.3 95 0.3 SW 7 9 4 5 1017.6 - 0.8
25/02:35am 6.2 3.9 5.5 95 0.3 SSW 7 9 4 5 1017.7 - 0.8
25/02:30am 6.7 4.6 6.0 95 0.3 SSW 6 11 3 6 1017.7 - 0.8
25/02:08am 6.5 5.5 5.6 94 0.4 CALM 0 0 0 0 1017.4 - 0.8
25/02:00am 6.6 5.6 5.7 94 0.4 CALM 0 0 0 0 1017.5 - 0.8
25/01:30am 7.0 6.1 5.9 93 0.5 CALM 0 0 0 0 1017.7 - 0.8
25/01:00am 8.5 8.0 7.7 95 0.4 CALM 0 0 0 0 1017.7 - 0.8
25/12:30am 7.8 7.1 6.9 94 0.4 CALM 0 0 0 0 1017.9 - 0.8
25/12:00am 8.3 7.7 7.4 94 0.4 CALM 0 0 0 0 1018.1 1018.1 0.8
 
Date/Time
EST
Temp
°C
App
Temp
°C
Dew
Point
Rel
Hum
%
Delta-T
°C
Wind Press
QNH
hPa
Press
MSL
hPa
Rain
since 9 am
mm
Dir
 
Spd
km/h
Gust
km/h
Spd
kts
Gust
kts
24/11:30pm 8.6 8.1 7.8 95 0.4 CALM 0 0 0 0 1018.4 - 0.8
24/11:00pm 8.6 8.1 7.8 95 0.4 CALM 0 0 0 0 1018.5 - 0.8
24/10:30pm 8.7 8.2 7.9 95 0.4 CALM 0 0 0 0 1018.7 - 0.8
24/10:00pm 8.5 8.0 7.7 95 0.4 CALM 0 0 0 0 1018.8 - 0.8
24/09:30pm 8.2 7.6 7.4 95 0.4 CALM 0 0 0 0 1018.9 - 0.8
24/09:25pm 8.4 7.8 7.6 95 0.4 CALM 0 0 0 0 1019.0 - 0.8
24/09:08pm 8.1 7.5 7.2 94 0.4 CALM 0 0 0 0 1019.0 - 0.8
24/09:07pm 8.2 7.6 7.3 94 0.4 CALM 0 0 0 0 1019.0 - 0.8
24/09:00pm 7.5 6.7 6.4 93 0.5 CALM 0 0 0 0 1019.0 1019.0 0.8
24/08:54pm 7.7 6.9 6.6 93 0.5 CALM 0 0 0 0 1019.0 - 0.8
24/08:30pm 8.3 7.7 7.2 93 0.5 CALM 0 0 0 0 1019.0 - 0.8
24/08:00pm 9.1 7.5 7.9 92 0.6 SSW 6 7 3 4 1018.8 - 0.8
24/07:30pm 9.5 8.0 8.3 92 0.6 W 6 7 3 4 1018.7 - 0.8
24/07:00pm 11.0 10.6 9.6 91 0.7 WNW 2 7 1 4 1018.5 - 0.8
24/06:30pm 11.7 10.0 9.9 89 0.9 WNW 9 9 5 5 1018.3 - 0.8
24/06:00pm 12.0 12.2 10.4 90 0.8 CALM 0 0 0 0 1018.1 1018.1 0.8
24/05:30pm 12.5 12.6 10.2 86 1.2 CALM 0 0 0 0 1017.7 - 0.8
24/05:00pm 13.0 13.1 10.0 82 1.5 CALM 0 0 0 0 1017.6 - 0.8
24/04:30pm 13.8 13.9 10.2 79 1.9 CALM 0 0 0 0 1017.5 - 0.8
24/04:00pm 14.7 13.5 9.7 72 2.6 NNW 6 9 3 5 1017.0 - 0.8
24/03:30pm 15.4 14.1 10.0 70 2.8 NNE 7 13 4 7 1016.7 - 0.8
24/03:00pm 15.0 13.8 10.2 73 2.5 NNE 7 11 4 6 1016.8 1016.8 0.8
24/02:30pm 15.2 13.1 9.6 69 2.9 NNE 11 19 6 10 1017.1 - 0.8
24/02:00pm 15.6 13.4 9.5 67 3.2 NNE 11 17 6 9 1017.3 - 0.8
24/01:30pm 15.4 13.8 8.6 64 3.5 NNE 7 13 4 7 1017.7 - 0.8
24/01:00pm 14.8 12.7 8.3 65 3.3 NNE 9 17 5 9 1018.1 - 0.8
24/12:30pm 14.6 12.0 7.9 64 3.3 NE 11 20 6 11 1018.6 - 0.0
24/12:00pm 14.8 11.7 7.4 61 3.6 ENE 13 20 7 11 1019.0 1019.0 0.0
24/11:30am 14.3 13.1 8.0 66 3.1 NE 4 11 2 6 1019.6 - 0.0
24/11:00am 12.9 12.7 9.2 78 1.9 CALM 0 0 0 0 1020.4 - 0.0
24/10:30am 12.1 11.8 8.8 80 1.6 CALM 0 0 0 0 1020.6 - 0.0
24/10:00am 10.8 10.3 7.9 82 1.4 CALM 0 0 0 0 1020.8 - 0.0
24/09:30am 8.8 8.3 7.7 93 0.5 CALM 0 0 0 0 1020.8 - 0.0
24/09:00am 6.9 6.1 6.3 96 0.3 CALM 0 0 0 0 1020.7 1020.7 0.0
24/08:30am 6.2 5.3 5.9 98 0.1 CALM 0 0 0 0 1020.5 - 0.0
24/08:00am 4.2 2.8 3.8 97 0.2 CALM 0 0 0 0 1020.6 - 0.0
24/07:30am 3.4 1.9 3.0 97 0.2 CALM 0 0 0 0 1020.6 - 0.0
24/07:00am 3.2 1.6 2.6 96 0.2 CALM 0 0 0 0 1020.4 - 0.0
24/06:30am 2.8 1.2 2.2 96 0.2 CALM 0 0 0 0 1020.5 - 0.0
24/06:00am 2.9 1.3 2.3 96 0.2 CALM 0 0 0 0 1020.4 1020.4 0.0
24/05:30am 3.4 1.9 3.0 97 0.2 CALM 0 0 0 0 1020.3 - 0.0
24/05:00am 3.0 1.4 2.4 96 0.2 CALM 0 0 0 0 1020.1 - 0.0
24/04:30am 2.7 0.3 2.1 96 0.2 SW 4 7 2 4 1020.1 - 0.0
24/04:00am 3.0 0.1 2.4 96 0.2 SSW 7 9 4 5 1020.1 - 0.0
24/03:39am 2.8 0.0 2.2 96 0.2 SSW 6 9 3 5 1020.0 - 0.0
24/03:30am 2.8 1.1 2.1 95 0.3 CALM 0 0 0 0 1019.9 - 0.0
24/03:19am 2.6 0.9 1.9 95 0.3 CALM 0 0 0 0 1020.0 - 0.0
24/03:00am 2.9 1.3 2.2 95 0.3 CALM 0 0 0 0 1020.1 1020.1 0.0
24/02:30am 3.3 1.7 2.6 95 0.3 CALM 0 0 0 0 1020.2 - 0.0
24/02:00am 3.7 0.5 3.1 96 0.2 SSW 9 11 5 6 1020.5 - 0.0
24/01:30am 3.7 0.9 3.0 95 0.3 SW 7 11 4 6 1020.6 - 0.0
24/01:00am 4.0 1.2 3.3 95 0.3 SW 7 9 4 5 1020.9 - 0.0
24/12:30am 3.9 0.7 3.2 95 0.3 SSW 9 11 5 6 1021.1 - 0.0
24/12:00am 3.7 1.1 3.0 95 0.3 SSW 6 7 3 4 1021.5 1021.5 0.0
 
Date/Time
EST
Temp
°C
App
Temp
°C
Dew
Point
Rel
Hum
%
Delta-T
°C
Wind Press
QNH
hPa
Press
MSL
hPa
Rain
since 9 am
mm
Dir
 
Spd
km/h
Gust
km/h
Spd
kts
Gust
kts
23/11:30pm 4.6 2.1 4.0 96 0.3 SSW 6 9 3 5 1022.0 - 0.0
23/11:00pm 4.6 3.3 4.0 96 0.3 CALM 0 0 0 0 1022.2 - 0.0
23/10:41pm 4.7 3.4 4.0 95 0.3 CALM 0 0 0 0 1022.4 - 0.0
23/10:30pm 3.7 2.2 2.8 94 0.4 CALM 0 0 0 0 1022.6 - 0.0
23/10:06pm 3.9 2.4 3.0 94 0.4 CALM 0 0 0 0 1022.7 - 0.0
23/10:03pm 4.0 2.5 3.1 94 0.4 CALM 0 0 0 0 1022.7 - 0.0
23/10:00pm 4.1 2.6 3.1 93 0.4 CALM 0 0 0 0 1022.7 - 0.0
23/09:30pm 4.6 3.2 3.7 94 0.4 CALM 0 0 0 0 1022.7 - 0.0
23/09:00pm 4.6 3.2 3.4 92 0.5 CALM 0 0 0 0 1022.6 1022.6 0.0
23/08:30pm 5.6 4.4 4.6 93 0.4 CALM 0 0 0 0 1022.6 - 0.0
23/08:00pm 6.0 4.8 4.8 92 0.5 CALM 0 0 0 0 1022.6 - 0.0
23/07:30pm 6.3 4.4 4.8 90 0.7 WSW 4 7 2 4 1022.5 - 0.0
23/07:00pm 7.2 6.1 5.3 88 0.8 CALM 0 0 0 0 1022.4 - 0.0
23/06:30pm 8.0 5.8 6.1 88 0.9 WNW 7 9 4 5 1022.2 - 0.0
23/06:00pm 8.7 7.9 6.7 87 0.9 CALM 0 0 0 0 1021.9 1021.9 0.0
23/05:30pm 9.8 7.8 7.2 84 1.2 NW 7 9 4 5 1021.8 - 0.0
23/05:00pm 11.3 10.5 6.6 73 2.2 CALM 0 0 0 0 1021.6 - 0.0
23/04:30pm 13.3 12.2 6.9 65 3.1 NE 2 7 1 4 1021.6 - 0.0
23/04:00pm 13.8 11.7 6.7 62 3.4 ENE 7 9 4 5 1021.6 - 0.0
23/03:30pm 14.8 12.4 6.9 59 3.9 ENE 9 13 5 7 1021.5 - 0.0
23/03:00pm 14.9 12.4 6.7 58 4.0 ENE 9 15 5 8 1021.5 1021.5 0.0
23/02:30pm 15.6 12.7 6.3 54 4.5 E 11 15 6 8 1021.5 - 0.0
23/02:00pm 15.8 13.4 6.8 55 4.4 E 9 15 5 8 1021.7 - 0.0
23/01:30pm 15.8 12.6 7.0 56 4.3 E 13 17 7 9 1022.0 - 0.0
23/01:00pm 15.9 13.1 7.1 56 4.3 E 11 15 6 8 1022.4 - 0.0
23/12:30pm 15.5 12.6 6.5 55 4.4 E 11 15 6 8 1022.9 - 0.0
23/12:00pm 16.4 15.1 7.6 56 4.4 SW 4 13 2 7 1023.4 1023.4 0.0
23/11:30am 15.5 13.2 5.7 52 4.7 NW 7 11 4 6 1024.0 - 0.0
23/11:00am 15.4 13.4 6.4 55 4.4 NNW 6 9 3 5 1024.4 - 0.0
23/10:30am 14.2 13.4 6.3 59 3.8 CALM 0 7 0 4 1024.7 - 0.0
23/10:00am 12.5 10.3 6.3 66 2.9 NW 7 9 4 5 1025.1 - 0.0
23/09:30am 10.0 7.8 6.0 76 1.8 NW 7 11 4 6 1025.2 - 0.0
23/09:00am 8.3 7.5 6.3 87 0.9 CALM 0 0 0 0 1025.2 1025.2 0.0
23/08:30am 6.2 4.3 4.8 91 0.6 WSW 4 9 2 5 1025.2 - 0.0
23/08:00am 5.7 2.2 5.3 97 0.2 NW 13 17 7 9 1025.2 - 0.0
23/07:30am 4.4 1.0 3.8 96 0.2 WNW 11 15 6 8 1025.0 - 0.0
23/07:00am 3.3 0.4 2.7 96 0.2 WNW 7 11 4 6 1024.7 - 0.0
23/06:30am 2.9 1.3 2.2 95 0.3 CALM 0 0 0 0 1024.5 - 0.0
23/06:00am 2.7 1.0 2.0 95 0.3 CALM 0 0 0 0 1024.2 1024.2 0.0
23/05:30am 3.6 1.3 2.9 95 0.3 WSW 4 7 2 4 1024.1 - 0.0
23/05:00am 4.4 1.0 3.8 96 0.2 NNW 11 13 6 7 1023.8 - 0.0
23/04:30am 4.2 1.7 3.6 96 0.2 W 6 9 3 5 1023.6 - 0.0
23/04:00am 3.3 0.4 2.6 95 0.3 W 7 9 4 5 1023.6 - 0.0
23/03:30am 3.4 0.7 2.7 95 0.3 SW 6 9 3 5 1023.7 - 0.0

Other Formats:

Comma delimited format used in spreadsheet applications
http://www.bom.gov.au/fwo/IDN60801/IDN60801.95929.axf

JavaScript Object Notation format (JSON) in row-major order
http://www.bom.gov.au/fwo/IDN60801/IDN60801.95929.json